sensor_id;sensor_type;location;lat;lon;timestamp;pressure;altitude;pressure_sealevel;temperature;humidity
75049;BME280;63803;53.120;8.764;2023-02-28T00:00:34;103254.94;;;22.20;35.11
75049;BME280;63803;53.120;8.764;2023-02-28T00:03:00;103251.91;;;22.23;34.73
75049;BME280;63803;53.120;8.764;2023-02-28T00:05:27;103251.06;;;22.23;34.82
75049;BME280;63803;53.120;8.764;2023-02-28T00:07:53;103256.47;;;22.23;34.78
75049;BME280;63803;53.120;8.764;2023-02-28T00:10:24;103253.06;;;22.20;34.74
75049;BME280;63803;53.120;8.764;2023-02-28T00:12:51;103252.91;;;22.22;34.76
75049;BME280;63803;53.120;8.764;2023-02-28T00:15:17;103252.06;;;22.22;34.75
75049;BME280;63803;53.120;8.764;2023-02-28T00:17:43;103256.47;;;22.23;34.55
75049;BME280;63803;53.120;8.764;2023-02-28T00:20:09;103248.50;;;22.21;34.83
75049;BME280;63803;53.120;8.764;2023-02-28T00:22:36;103244.78;;;22.22;34.53
75049;BME280;63803;53.120;8.764;2023-02-28T00:25:03;103260.22;;;22.22;34.84
75049;BME280;63803;53.120;8.764;2023-02-28T00:27:29;103257.66;;;22.20;34.50
75049;BME280;63803;53.120;8.764;2023-02-28T00:29:55;103256.66;;;22.21;34.67
75049;BME280;63803;53.120;8.764;2023-02-28T00:32:21;103253.06;;;22.20;34.82
75049;BME280;63803;53.120;8.764;2023-02-28T00:34:46;103245.78;;;22.21;34.30
75049;BME280;63803;53.120;8.764;2023-02-28T00:37:12;103253.94;;;22.21;34.47
75049;BME280;63803;53.120;8.764;2023-02-28T00:39:38;103252.91;;;22.22;34.73
75049;BME280;63803;53.120;8.764;2023-02-28T00:42:04;103258.50;;;22.20;34.83
75049;BME280;63803;53.120;8.764;2023-02-28T00:44:31;103258.50;;;22.20;34.34
75049;BME280;63803;53.120;8.764;2023-02-28T00:46:57;103253.94;;;22.21;34.51
75049;BME280;63803;53.120;8.764;2023-02-28T00:49:23;103256.66;;;22.21;34.71
75049;BME280;63803;53.120;8.764;2023-02-28T00:51:49;103256.66;;;22.21;34.73
75049;BME280;63803;53.120;8.764;2023-02-28T00:54:15;103256.66;;;22.21;34.34
75049;BME280;63803;53.120;8.764;2023-02-28T00:56:41;103253.06;;;22.20;34.32
75049;BME280;63803;53.120;8.764;2023-02-28T00:59:06;103262.06;;;22.21;34.35
75049;BME280;63803;53.120;8.764;2023-02-28T01:01:32;103254.78;;;22.22;34.33
75049;BME280;63803;53.120;8.764;2023-02-28T01:03:57;103257.34;;;22.23;34.31
75049;BME280;63803;53.120;8.764;2023-02-28T01:06:23;103253.06;;;22.20;34.51
75049;BME280;63803;53.120;8.764;2023-02-28T01:08:49;103258.50;;;22.20;34.43
75049;BME280;63803;53.120;8.764;2023-02-28T01:11:16;103256.81;;;22.19;34.34
75049;BME280;63803;53.120;8.764;2023-02-28T01:13:42;103262.22;;;22.19;34.51
75049;BME280;63803;53.120;8.764;2023-02-28T01:16:08;103267.66;;;22.19;34.75
75049;BME280;63803;53.120;8.764;2023-02-28T01:18:35;103265.97;;;22.18;34.36
75049;BME280;63803;53.120;8.764;2023-02-28T01:21:08;103264.94;;;22.19;34.35
75049;BME280;63803;53.120;8.764;2023-02-28T01:23:34;103272.94;;;22.21;34.45
75049;BME280;63803;53.120;8.764;2023-02-28T01:26:13;103264.09;;;22.19;34.35
75049;BME280;63803;53.120;8.764;2023-02-28T01:28:39;103265.09;;;22.18;34.08
75049;BME280;63803;53.120;8.764;2023-02-28T01:31:05;103264.94;;;22.19;34.65
75049;BME280;63803;53.120;8.764;2023-02-28T01:33:31;103272.94;;;22.21;34.59
75049;BME280;63803;53.120;8.764;2023-02-28T01:36:02;103269.38;;;22.20;34.34
75049;BME280;63803;53.120;8.764;2023-02-28T01:38:29;103266.81;;;22.19;34.60
75049;BME280;63803;53.120;8.764;2023-02-28T01:40:54;103266.66;;;22.20;34.25
75049;BME280;63803;53.120;8.764;2023-02-28T01:43:29;103258.66;;;22.19;34.17
75049;BME280;63803;53.120;8.764;2023-02-28T01:45:56;103264.09;;;22.19;34.46
75049;BME280;63803;53.120;8.764;2023-02-28T01:48:26;103263.09;;;22.20;34.19
75049;BME280;63803;53.120;8.764;2023-02-28T01:50:53;103262.06;;;22.21;34.39
75049;BME280;63803;53.120;8.764;2023-02-28T01:53:26;103269.38;;;22.20;34.15
75049;BME280;63803;53.120;8.764;2023-02-28T01:55:54;103266.81;;;22.19;34.42
75049;BME280;63803;53.120;8.764;2023-02-28T01:58:20;103266.81;;;22.19;33.90
75049;BME280;63803;53.120;8.764;2023-02-28T02:00:46;103263.41;;;22.17;34.04
75049;BME280;63803;53.120;8.764;2023-02-28T02:03:16;103265.97;;;22.18;34.09
75049;BME280;63803;53.120;8.764;2023-02-28T02:05:48;103272.25;;;22.19;34.03
75049;BME280;63803;53.120;8.764;2023-02-28T02:08:17;103272.25;;;22.19;33.97
75049;BME280;63803;53.120;8.764;2023-02-28T02:10:46;103263.25;;;22.18;34.50
75049;BME280;63803;53.120;8.764;2023-02-28T02:16:07;103264.94;;;22.19;34.08
75049;BME280;63803;53.120;8.764;2023-02-28T02:37:47;103247.97;;;22.17;34.26
75049;BME280;63803;53.120;8.764;2023-02-28T02:40:42;103250.53;;;22.19;34.13
75049;BME280;63803;53.120;8.764;2023-02-28T02:43:22;103246.13;;;22.18;34.22
75049;BME280;63803;53.120;8.764;2023-02-28T02:46:02;103250.53;;;22.19;33.97
75049;BME280;63803;53.120;8.764;2023-02-28T02:48:33;103247.97;;;22.17;34.22
75049;BME280;63803;53.120;8.764;2023-02-28T02:51:02;103246.31;;;22.16;34.04
75049;BME280;63803;53.120;8.764;2023-02-28T02:53:35;103256.31;;;22.16;33.86
75049;BME280;63803;53.120;8.764;2023-02-28T02:56:03;103241.88;;;22.15;33.75
75049;BME280;63803;53.120;8.764;2023-02-28T02:58:35;103251.72;;;22.16;34.42
75049;BME280;63803;53.120;8.764;2023-02-28T03:01:08;103247.97;;;22.17;34.28
75049;BME280;63803;53.120;8.764;2023-02-28T03:03:35;103246.31;;;22.16;33.90
75049;BME280;63803;53.120;8.764;2023-02-28T03:06:02;103239.84;;;22.17;34.01
75049;BME280;63803;53.120;8.764;2023-02-28T03:08:30;103245.09;;;22.19;34.18
75049;BME280;63803;53.120;8.764;2023-02-28T03:11:12;103238.31;;;22.15;34.32
75049;BME280;63803;53.120;8.764;2023-02-28T03:13:50;103246.97;;;22.18;33.98
75049;BME280;63803;53.120;8.764;2023-02-28T03:37:34;103253.41;;;22.17;33.98
75049;BME280;63803;53.120;8.764;2023-02-28T03:40:14;103258.19;;;22.15;33.96
75049;BME280;63803;53.120;8.764;2023-02-28T03:42:43;103257.31;;;22.15;34.07
75049;BME280;63803;53.120;8.764;2023-02-28T03:45:18;103263.41;;;22.17;33.58
75049;BME280;63803;53.120;8.764;2023-02-28T03:47:55;103257.16;;;22.16;33.66
75049;BME280;63803;53.120;8.764;2023-02-28T03:50:24;103257.97;;;22.17;33.71
75049;BME280;63803;53.120;8.764;2023-02-28T03:53:01;103254.59;;;22.15;33.76
75049;BME280;63803;53.120;8.764;2023-02-28T03:55:33;103263.41;;;22.17;33.86
75049;BME280;63803;53.120;8.764;2023-02-28T03:58:14;103256.47;;;22.14;33.94
75049;BME280;63803;53.120;8.764;2023-02-28T04:00:46;103260.03;;;22.15;33.94
75049;BME280;63803;53.120;8.764;2023-02-28T04:03:13;103268.19;;;22.15;33.82
75049;BME280;63803;53.120;8.764;2023-02-28T04:05:54;103264.63;;;22.14;34.07
75049;BME280;63803;53.120;8.764;2023-02-28T04:08:21;103263.75;;;22.14;34.11
75049;BME280;63803;53.120;8.764;2023-02-28T04:10:53;103265.47;;;22.15;33.86
75049;BME280;63803;53.120;8.764;2023-02-28T04:13:21;103270.03;;;22.14;33.56
75049;BME280;63803;53.120;8.764;2023-02-28T04:15:46;103276.47;;;22.13;33.69
75049;BME280;63803;53.120;8.764;2023-02-28T04:18:11;103275.47;;;22.14;33.76
75049;BME280;63803;53.120;8.764;2023-02-28T04:20:37;103279.19;;;22.13;33.64
75049;BME280;63803;53.120;8.764;2023-02-28T04:23:02;103268.34;;;22.13;34.04
75049;BME280;63803;53.120;8.764;2023-02-28T04:25:28;103276.31;;;22.15;33.45
75049;BME280;63803;53.120;8.764;2023-02-28T04:27:53;103278.19;;;22.14;33.77
75049;BME280;63803;53.120;8.764;2023-02-28T04:30:18;103279.88;;;22.15;33.91
75049;BME280;63803;53.120;8.764;2023-02-28T04:32:44;103273.59;;;22.15;33.46
75049;BME280;63803;53.120;8.764;2023-02-28T04:35:09;103272.59;;;22.16;33.77
75049;BME280;63803;53.120;8.764;2023-02-28T04:37:35;103281.59;;;22.16;33.88
75049;BME280;63803;53.120;8.764;2023-02-28T04:40:02;103274.63;;;22.14;33.84
75049;BME280;63803;53.120;8.764;2023-02-28T04:42:28;103280.72;;;22.16;33.44
75049;BME280;63803;53.120;8.764;2023-02-28T04:45:03;103279.19;;;22.13;33.47
75049;BME280;63803;53.120;8.764;2023-02-28T04:47:29;103282.75;;;22.14;33.75
75049;BME280;63803;53.120;8.764;2023-02-28T04:49:55;103271.22;;;22.12;33.88
75049;BME280;63803;53.120;8.764;2023-02-28T04:52:20;103275.47;;;22.14;33.76
75049;BME280;63803;53.120;8.764;2023-02-28T04:54:46;103272.75;;;22.14;33.70
75049;BME280;63803;53.120;8.764;2023-02-28T04:57:11;103278.34;;;22.13;33.58
75049;BME280;63803;53.120;8.764;2023-02-28T04:59:37;103276.63;;;22.12;33.38
75049;BME280;63803;53.120;8.764;2023-02-28T05:02:02;103278.34;;;22.13;33.48
75049;BME280;63803;53.120;8.764;2023-02-28T05:04:35;103281.06;;;22.13;33.87
75049;BME280;63803;53.120;8.764;2023-02-28T05:07:01;103277.34;;;22.14;33.83
75049;BME280;63803;53.120;8.764;2023-02-28T05:09:27;103277.34;;;22.14;33.72
75049;BME280;63803;53.120;8.764;2023-02-28T05:11:53;103282.75;;;22.14;33.29
75049;BME280;63803;53.120;8.764;2023-02-28T05:14:19;103280.91;;;22.14;33.67
75049;BME280;63803;53.120;8.764;2023-02-28T05:16:45;103279.88;;;22.15;33.28
75049;BME280;63803;53.120;8.764;2023-02-28T05:19:10;103276.31;;;22.15;33.16
75049;BME280;63803;53.120;8.764;2023-02-28T05:21:38;103274.63;;;22.14;33.64
75049;BME280;63803;53.120;8.764;2023-02-28T05:24:11;103272.06;;;22.12;33.45
75049;BME280;63803;53.120;8.764;2023-02-28T05:26:40;103281.91;;;22.13;33.30
75049;BME280;63803;53.120;8.764;2023-02-28T05:29:06;103287.66;;;22.10;33.41
75049;BME280;63803;53.120;8.764;2023-02-28T05:31:31;103283.78;;;22.13;33.63
75049;BME280;63803;53.120;8.764;2023-02-28T05:33:57;103285.47;;;22.14;33.66
75049;BME280;63803;53.120;8.764;2023-02-28T05:36:23;103287.34;;;22.13;33.53
75049;BME280;63803;53.120;8.764;2023-02-28T05:38:49;103288.34;;;22.12;33.55
75049;BME280;63803;53.120;8.764;2023-02-28T05:41:16;103281.91;;;22.13;33.61
75049;BME280;63803;53.120;8.764;2023-02-28T05:43:41;103284.78;;;22.12;33.18
75049;BME280;63803;53.120;8.764;2023-02-28T05:46:08;103283.09;;;22.11;33.46
75049;BME280;63803;53.120;8.764;2023-02-28T05:48:35;103290.22;;;22.12;33.36
75049;BME280;63803;53.120;8.764;2023-02-28T05:51:02;103279.34;;;22.12;33.54
75049;BME280;63803;53.120;8.764;2023-02-28T05:53:28;103282.22;;;22.10;33.16
75049;BME280;63803;53.120;8.764;2023-02-28T05:55:54;103286.66;;;22.11;33.34
75049;BME280;63803;53.120;8.764;2023-02-28T05:58:19;103289.19;;;22.13;33.18
75049;BME280;63803;53.120;8.764;2023-02-28T06:00:45;103287.50;;;22.12;33.44
75049;BME280;63803;53.120;8.764;2023-02-28T06:03:11;103294.78;;;22.11;33.72
75049;BME280;63803;53.120;8.764;2023-02-28T06:05:36;103301.91;;;22.04;33.48
75049;BME280;63803;53.120;8.764;2023-02-28T06:08:04;103306.28;;;21.97;33.96
75049;BME280;63803;53.120;8.764;2023-02-28T06:10:31;103301.16;;;21.94;34.48
75049;BME280;63803;53.120;8.764;2023-02-28T06:12:59;103308.63;;;21.92;34.49
75049;BME280;63803;53.120;8.764;2023-02-28T06:15:25;103309.47;;;21.93;34.58
75049;BME280;63803;53.120;8.764;2023-02-28T06:17:51;103314.91;;;21.93;34.25
75049;BME280;63803;53.120;8.764;2023-02-28T06:20:17;103316.06;;;21.90;34.74
75049;BME280;63803;53.120;8.764;2023-02-28T06:22:42;103316.94;;;21.91;34.47
75049;BME280;63803;53.120;8.764;2023-02-28T06:25:09;103322.34;;;21.91;34.41
75049;BME280;63803;53.120;8.764;2023-02-28T06:27:35;103325.91;;;21.91;34.46
75049;BME280;63803;53.120;8.764;2023-02-28T06:30:01;103318.09;;;21.88;34.84
75049;BME280;63803;53.120;8.764;2023-02-28T06:32:26;103317.09;;;21.89;34.95
75049;BME280;63803;53.120;8.764;2023-02-28T06:34:52;103321.50;;;21.90;34.59
75049;BME280;63803;53.120;8.764;2023-02-28T06:37:18;103322.81;;;21.86;34.70
75049;BME280;63803;53.120;8.764;2023-02-28T06:39:44;103325.22;;;21.89;34.68
75049;BME280;63803;53.120;8.764;2023-02-28T06:42:09;103324.22;;;21.90;34.68
75049;BME280;63803;53.120;8.764;2023-02-28T06:44:35;103333.34;;;21.89;34.64
75049;BME280;63803;53.120;8.764;2023-02-28T06:47:06;103336.75;;;21.91;34.79
75049;BME280;63803;53.120;8.764;2023-02-28T06:49:34;103339.47;;;21.91;34.37
75049;BME280;63803;53.120;8.764;2023-02-28T06:51:59;103339.47;;;21.91;34.51
75049;BME280;63803;53.120;8.764;2023-02-28T06:54:25;103344.06;;;21.91;34.75
75049;BME280;63803;53.120;8.764;2023-02-28T06:56:50;103340.13;;;21.93;34.63
75049;BME280;63803;53.120;8.764;2023-02-28T06:59:17;103333.91;;;21.93;34.51
75049;BME280;63803;53.120;8.764;2023-02-28T07:01:43;103334.06;;;21.91;34.59
75049;BME280;63803;53.120;8.764;2023-02-28T07:04:08;103336.41;;;21.94;34.44
75049;BME280;63803;53.120;8.764;2023-02-28T07:06:34;103340.84;;;21.95;34.64
75049;BME280;63803;53.120;8.764;2023-02-28T07:09:00;103341.69;;;21.96;34.69
75049;BME280;63803;53.120;8.764;2023-02-28T07:11:27;103338.13;;;21.95;34.15
75049;BME280;63803;53.120;8.764;2023-02-28T07:13:54;103339.81;;;21.96;34.35
75049;BME280;63803;53.120;8.764;2023-02-28T07:16:20;103349.81;;;21.96;34.53
75049;BME280;63803;53.120;8.764;2023-02-28T07:18:46;103358.69;;;21.98;34.31
75049;BME280;63803;53.120;8.764;2023-02-28T07:21:12;103354.81;;;22.00;34.08
75049;BME280;63803;53.120;8.764;2023-02-28T07:23:38;103361.91;;;22.01;34.45
75049;BME280;63803;53.120;8.764;2023-02-28T07:26:05;103357.72;;;22.07;33.96
75049;BME280;63803;53.120;8.764;2023-02-28T07:28:30;103356.69;;;22.08;34.05
75049;BME280;63803;53.120;8.764;2023-02-28T07:30:56;103360.69;;;21.62;33.08
75049;BME280;63803;53.120;8.764;2023-02-28T07:33:22;103361.28;;;21.48;32.74
75049;BME280;63803;53.120;8.764;2023-02-28T07:35:49;103361.63;;;21.19;32.83
75049;BME280;63803;53.120;8.764;2023-02-28T07:38:14;103362.63;;;21.18;32.31
75049;BME280;63803;53.120;8.764;2023-02-28T07:40:40;103365.44;;;21.60;32.99
75049;BME280;63803;53.120;8.764;2023-02-28T07:43:05;103372.00;;;21.83;33.01
75049;BME280;63803;53.120;8.764;2023-02-28T07:45:32;103362.53;;;21.95;33.25
75049;BME280;63803;53.120;8.764;2023-02-28T07:47:59;103361.25;;;21.99;33.44
75049;BME280;63803;53.120;8.764;2023-02-28T07:50:25;103351.06;;;22.01;33.25
75049;BME280;63803;53.120;8.764;2023-02-28T07:52:50;103352.59;;;22.04;33.40
75049;BME280;63803;53.120;8.764;2023-02-28T07:55:15;103361.28;;;22.07;33.76
75049;BME280;63803;53.120;8.764;2023-02-28T07:57:42;103354.16;;;22.06;33.75
75049;BME280;63803;53.120;8.764;2023-02-28T08:00:10;103362.97;;;22.08;33.61
75049;BME280;63803;53.120;8.764;2023-02-28T08:02:36;103365.34;;;22.11;33.29
75049;BME280;63803;53.120;8.764;2023-02-28T08:05:02;103364.34;;;22.12;33.75
75049;BME280;63803;53.120;8.764;2023-02-28T08:07:27;103365.88;;;22.15;33.69
75049;BME280;63803;53.120;8.764;2023-02-28T08:09:53;103367.91;;;22.13;33.59
75049;BME280;63803;53.120;8.764;2023-02-28T08:12:19;103368.44;;;22.16;33.49
75049;BME280;63803;53.120;8.764;2023-02-28T08:14:45;103368.91;;;22.12;34.05
75049;BME280;63803;53.120;8.764;2023-02-28T08:17:10;103369.13;;;22.35;34.06
75049;BME280;63803;53.120;8.764;2023-02-28T08:19:36;103367.09;;;22.29;33.47
75049;BME280;63803;53.120;8.764;2023-02-28T08:22:02;103367.94;;;22.21;33.92
75049;BME280;63803;53.120;8.764;2023-02-28T08:24:27;103374.22;;;22.22;33.73
75049;BME280;63803;53.120;8.764;2023-02-28T08:26:53;103375.22;;;22.20;33.59
75049;BME280;63803;53.120;8.764;2023-02-28T08:29:21;103381.00;;;22.26;33.86
75049;BME280;63803;53.120;8.764;2023-02-28T08:31:46;103379.91;;;22.10;33.97
75049;BME280;63803;53.120;8.764;2023-02-28T08:34:14;103369.94;;;22.19;33.69
75049;BME280;63803;53.120;8.764;2023-02-28T08:36:40;103373.34;;;22.21;34.18
75049;BME280;63803;53.120;8.764;2023-02-28T08:39:05;103378.47;;;22.24;33.97
75049;BME280;63803;53.120;8.764;2023-02-28T08:41:32;103380.50;;;22.22;33.93
75049;BME280;63803;53.120;8.764;2023-02-28T08:43:57;103376.41;;;22.26;33.65
75049;BME280;63803;53.120;8.764;2023-02-28T08:46:24;103379.81;;;22.28;33.50
75049;BME280;63803;53.120;8.764;2023-02-28T08:48:57;103373.69;;;22.26;34.11
75049;BME280;63803;53.120;8.764;2023-02-28T08:51:27;103376.25;;;22.28;34.06
75049;BME280;63803;53.120;8.764;2023-02-28T08:53:54;103364.69;;;22.26;33.87
75049;BME280;63803;53.120;8.764;2023-02-28T08:56:21;103373.69;;;22.26;34.04
75049;BME280;63803;53.120;8.764;2023-02-28T08:58:49;103377.97;;;22.29;33.75
75049;BME280;63803;53.120;8.764;2023-02-28T09:01:18;103373.22;;;22.31;33.72
75049;BME280;63803;53.120;8.764;2023-02-28T09:03:45;103381.69;;;22.28;33.81
75049;BME280;63803;53.120;8.764;2023-02-28T09:06:12;103374.38;;;22.28;33.66
75049;BME280;63803;53.120;8.764;2023-02-28T09:08:38;103378.13;;;22.27;33.86
75049;BME280;63803;53.120;8.764;2023-02-28T09:11:04;103380.84;;;22.27;33.90
75049;BME280;63803;53.120;8.764;2023-02-28T09:13:30;103377.97;;;22.29;33.53
75049;BME280;63803;53.120;8.764;2023-02-28T09:15:58;103383.22;;;22.30;33.87
75049;BME280;63803;53.120;8.764;2023-02-28T09:18:24;103385.09;;;22.30;33.83
75049;BME280;63803;53.120;8.764;2023-02-28T09:20:50;103382.38;;;22.30;33.80
75049;BME280;63803;53.120;8.764;2023-02-28T09:23:16;103387.09;;;22.28;33.67
75049;BME280;63803;53.120;8.764;2023-02-28T09:25:50;103378.47;;;22.24;33.48
75049;BME280;63803;53.120;8.764;2023-02-28T09:28:16;103373.84;;;22.25;33.97
75049;BME280;63803;53.120;8.764;2023-02-28T09:30:44;103370.31;;;22.24;33.25
75049;BME280;63803;53.120;8.764;2023-02-28T09:33:10;103370.13;;;22.26;33.72
75049;BME280;63803;53.120;8.764;2023-02-28T09:35:35;103376.25;;;22.28;33.67
75049;BME280;63803;53.120;8.764;2023-02-28T09:38:03;103371.84;;;22.27;33.86
75049;BME280;63803;53.120;8.764;2023-02-28T09:40:28;103372.38;;;22.30;34.04
75049;BME280;63803;53.120;8.764;2023-02-28T09:42:57;103375.28;;;22.45;33.62
75049;BME280;63803;53.120;8.764;2023-02-28T09:45:25;103370.69;;;22.37;33.84
75049;BME280;63803;53.120;8.764;2023-02-28T09:47:54;103384.75;;;22.33;33.85
75049;BME280;63803;53.120;8.764;2023-02-28T09:50:42;103380.66;;;22.29;33.62
75049;BME280;63803;53.120;8.764;2023-02-28T09:53:32;103385.41;;;22.27;34.06
75049;BME280;63803;53.120;8.764;2023-02-28T09:56:10;103385.41;;;22.27;33.64
75049;BME280;63803;53.120;8.764;2023-02-28T09:58:48;103386.09;;;22.29;33.43
75049;BME280;63803;53.120;8.764;2023-02-28T10:13:07;103387.28;;;22.26;33.13
75049;BME280;63803;53.120;8.764;2023-02-28T10:15:38;103383.53;;;22.27;33.80
75049;BME280;63803;53.120;8.764;2023-02-28T10:18:06;103389.97;;;22.26;33.85
75049;BME280;63803;53.120;8.764;2023-02-28T10:20:39;103395.41;;;22.26;33.61
75049;BME280;63803;53.120;8.764;2023-02-28T10:23:26;103395.41;;;22.26;33.44
75049;BME280;63803;53.120;8.764;2023-02-28T10:25:59;103396.09;;;22.28;33.87
75049;BME280;63803;53.120;8.764;2023-02-28T10:28:25;103397.28;;;22.26;33.45
75049;BME280;63803;53.120;8.764;2023-02-28T10:30:53;103395.25;;;22.28;33.70
75049;BME280;63803;53.120;8.764;2023-02-28T10:33:30;103393.22;;;22.30;33.57
75049;BME280;63803;53.120;8.764;2023-02-28T10:35:57;103401.53;;;22.28;33.26
75049;BME280;63803;53.120;8.764;2023-02-28T10:38:33;103393.56;;;22.27;33.13
75049;BME280;63803;53.120;8.764;2023-02-28T10:43:31;103386.78;;;22.31;33.58
75049;BME280;63803;53.120;8.764;2023-02-28T10:45:59;103389.50;;;22.31;33.83
75049;BME280;63803;53.120;8.764;2023-02-28T10:51:01;103382.38;;;22.30;33.51
75049;BME280;63803;53.120;8.764;2023-02-28T10:53:37;103374.94;;;22.40;33.49
75049;BME280;63803;53.120;8.764;2023-02-28T10:58:53;103371.38;;;22.39;33.61
75049;BME280;63803;53.120;8.764;2023-02-28T11:03:43;103368.66;;;22.39;33.34
75049;BME280;63803;53.120;8.764;2023-02-28T11:06:16;103378.66;;;22.39;33.79
75049;BME280;63803;53.120;8.764;2023-02-28T11:08:54;103371.19;;;22.41;33.43
75049;BME280;63803;53.120;8.764;2023-02-28T11:11:21;103366.44;;;22.43;33.72
75049;BME280;63803;53.120;8.764;2023-02-28T11:13:52;103372.72;;;22.43;33.30
75049;BME280;63803;53.120;8.764;2023-02-28T11:16:18;103361.16;;;22.41;33.54
75049;BME280;63803;53.120;8.764;2023-02-28T11:18:54;103374.75;;;22.41;33.36
75049;BME280;63803;53.120;8.764;2023-02-28T11:21:27;103367.63;;;22.40;33.71
75049;BME280;63803;53.120;8.764;2023-02-28T11:24:02;103369.31;;;22.41;33.74
75049;BME280;63803;53.120;8.764;2023-02-28T11:26:58;103371.03;;;22.42;33.36
75049;BME280;63803;53.120;8.764;2023-02-28T11:29:30;103366.44;;;22.43;33.51
75049;BME280;63803;53.120;8.764;2023-02-28T11:34:27;103371.88;;;22.43;33.27
75049;BME280;63803;53.120;8.764;2023-02-28T11:36:55;103363.22;;;22.39;33.33
75049;BME280;63803;53.120;8.764;2023-02-28T11:39:22;103357.97;;;22.38;33.82
75049;BME280;63803;53.120;8.764;2023-02-28T11:48:01;103357.59;;;22.41;33.65
75049;BME280;63803;53.120;8.764;2023-02-28T11:50:50;103360.31;;;22.41;33.37
75049;BME280;63803;53.120;8.764;2023-02-28T11:56:29;103360.16;;;22.42;33.36
75049;BME280;63803;53.120;8.764;2023-02-28T11:59:20;103352.03;;;22.42;33.52
75049;BME280;63803;53.120;8.764;2023-02-28T12:04:32;103345.06;;;22.40;33.41
75049;BME280;63803;53.120;8.764;2023-02-28T12:07:09;103337.75;;;22.40;33.16
75049;BME280;63803;53.120;8.764;2023-02-28T12:09:53;103339.97;;;22.37;33.74
75049;BME280;63803;53.120;8.764;2023-02-28T12:12:33;103336.25;;;22.38;33.29
75049;BME280;63803;53.120;8.764;2023-02-28T12:15:23;103329.97;;;22.37;33.51
75049;BME280;63803;53.120;8.764;2023-02-28T12:20:34;103330.97;;;22.36;33.80
75049;BME280;63803;53.120;8.764;2023-02-28T12:26:19;103314.16;;;22.33;33.70
75049;BME280;63803;53.120;8.764;2023-02-28T12:28:58;103315.34;;;22.30;33.92
75049;BME280;63803;53.120;8.764;2023-02-28T12:31:36;103311.78;;;22.30;33.35
75049;BME280;63803;53.120;8.764;2023-02-28T12:34:10;103317.06;;;22.31;33.85
75049;BME280;63803;53.120;8.764;2023-02-28T12:36:37;103304.34;;;22.32;33.66
75049;BME280;63803;53.120;8.764;2023-02-28T12:42:10;103297.22;;;22.31;33.67
75049;BME280;63803;53.120;8.764;2023-02-28T12:47:45;103292.94;;;22.28;33.69
75049;BME280;63803;53.120;8.764;2023-02-28T12:50:13;103298.22;;;22.30;33.53
75049;BME280;63803;53.120;8.764;2023-02-28T12:58:38;103275.97;;;22.26;33.74
75049;BME280;63803;53.120;8.764;2023-02-28T13:06:27;103277.84;;;22.26;33.58
75049;BME280;63803;53.120;8.764;2023-02-28T13:14:05;103272.25;;;22.27;33.19
75049;BME280;63803;53.120;8.764;2023-02-28T13:19:17;103262.75;;;22.23;33.90
75049;BME280;63803;53.120;8.764;2023-02-28T13:21:44;103259.69;;;22.26;33.30
75049;BME280;63803;53.120;8.764;2023-02-28T13:24:10;103262.25;;;22.28;33.65
75049;BME280;63803;53.120;8.764;2023-02-28T13:34:34;103255.81;;;22.29;33.86
75049;BME280;63803;53.120;8.764;2023-02-28T13:39:54;103256.66;;;22.29;33.62
75049;BME280;63803;53.120;8.764;2023-02-28T13:42:33;103258.69;;;22.27;33.78
75049;BME280;63803;53.120;8.764;2023-02-28T13:47:56;103254.44;;;22.41;33.25
75049;BME280;63803;53.120;8.764;2023-02-28T14:01:23;103246.50;;;22.47;33.64
75049;BME280;63803;53.120;8.764;2023-02-28T14:06:51;103231.88;;;22.40;33.41
75049;BME280;63803;53.120;8.764;2023-02-28T14:09:30;103227.47;;;22.39;33.07
75049;BME280;63803;53.120;8.764;2023-02-28T14:11:57;103223.56;;;22.34;33.50
75049;BME280;63803;53.120;8.764;2023-02-28T14:17:14;103230.00;;;22.33;33.17
75049;BME280;63803;53.120;8.764;2023-02-28T14:19:44;103224.75;;;22.31;33.25
75049;BME280;63803;53.120;8.764;2023-02-28T14:27:49;103232.38;;;22.28;33.51
75049;BME280;63803;53.120;8.764;2023-02-28T14:30:43;103236.97;;;22.27;33.35
75049;BME280;63803;53.120;8.764;2023-02-28T14:36:50;103231.91;;;22.24;33.08
75049;BME280;63803;53.120;8.764;2023-02-28T14:39:22;103235.44;;;22.25;33.39
75049;BME280;63803;53.120;8.764;2023-02-28T14:41:49;103236.28;;;22.25;33.43
75049;BME280;63803;53.120;8.764;2023-02-28T14:44:23;103227.63;;;22.22;33.25
75049;BME280;63803;53.120;8.764;2023-02-28T14:46:59;103230.50;;;22.20;33.30
75049;BME280;63803;53.120;8.764;2023-02-28T14:49:32;103230.50;;;22.20;33.17
75049;BME280;63803;53.120;8.764;2023-02-28T14:52:20;103233.22;;;22.20;32.92
75049;BME280;63803;53.120;8.764;2023-02-28T14:54:52;103237.81;;;22.19;33.04
75049;BME280;63803;53.120;8.764;2023-02-28T14:57:33;103234.41;;;22.17;33.49
75049;BME280;63803;53.120;8.764;2023-02-28T15:00:16;103237.13;;;22.17;32.95
75049;BME280;63803;53.120;8.764;2023-02-28T15:02:42;103234.75;;;22.14;33.36
75049;BME280;63803;53.120;8.764;2023-02-28T15:07:43;103232.38;;;22.11;33.09
75049;BME280;63803;53.120;8.764;2023-02-28T15:12:40;103245.09;;;22.11;33.07
75049;BME280;63803;53.120;8.764;2023-02-28T15:15:06;103235.09;;;22.11;32.80
75049;BME280;63803;53.120;8.764;2023-02-28T15:17:39;103243.22;;;22.11;32.88
75049;BME280;63803;53.120;8.764;2023-02-28T15:20:05;103237.31;;;22.08;33.14
75049;BME280;63803;53.120;8.764;2023-02-28T15:22:35;103238.97;;;22.09;33.15
75049;BME280;63803;53.120;8.764;2023-02-28T15:25:04;103239.16;;;22.07;32.80
75049;BME280;63803;53.120;8.764;2023-02-28T15:27:32;103244.41;;;22.09;33.09
75049;BME280;63803;53.120;8.764;2023-02-28T15:30:01;103239.81;;;22.09;32.71
75049;BME280;63803;53.120;8.764;2023-02-28T15:32:34;103233.53;;;22.09;32.91
75049;BME280;63803;53.120;8.764;2023-02-28T15:37:54;103238.47;;;22.05;32.89